createdAt,value
2018-12-03T00:01:26.085Z,10.23
2018-12-03T00:03:59.236Z,8.17
2018-12-03T00:06:28.557Z,12.00
2018-12-03T00:08:57.749Z,9.20
2018-12-03T00:11:26.995Z,11.67
2018-12-03T00:13:56.263Z,9.00
2018-12-03T00:16:25.453Z,13.37
2018-12-03T00:18:54.670Z,14.97
2018-12-03T00:21:23.913Z,15.17
2018-12-03T00:23:53.141Z,11.90
2018-12-03T00:26:22.386Z,9.23
2018-12-03T00:28:51.625Z,9.30
2018-12-03T00:31:20.836Z,12.67
2018-12-03T00:33:50.099Z,11.30
2018-12-03T00:36:19.346Z,14.80
2018-12-03T00:38:48.538Z,16.17
2018-12-03T00:41:17.803Z,11.43
2018-12-03T00:43:47.045Z,14.17
2018-12-03T00:46:16.290Z,10.83
2018-12-03T00:48:45.469Z,13.70
2018-12-03T00:51:14.709Z,7.50
2018-12-03T00:53:43.936Z,14.07
2018-12-03T00:56:13.188Z,13.47
2018-12-03T00:58:42.347Z,10.30
2018-12-03T01:01:11.547Z,10.67
2018-12-03T01:03:41.186Z,12.20
2018-12-03T01:06:10.413Z,10.77
2018-12-03T01:08:39.598Z,10.43
2018-12-03T01:11:08.858Z,7.97
2018-12-03T01:13:38.059Z,11.03
2018-12-03T01:16:07.304Z,9.70
2018-12-03T01:18:36.493Z,7.33
2018-12-03T01:21:06.223Z,13.20
2018-12-03T01:23:35.458Z,9.33
2018-12-03T01:26:04.690Z,8.70
2018-12-03T01:28:33.897Z,7.50
2018-12-03T01:31:03.123Z,8.90
2018-12-03T01:33:32.336Z,9.70
2018-12-03T01:36:01.578Z,7.63
2018-12-03T01:38:30.801Z,7.60
2018-12-03T01:40:59.981Z,7.20
2018-12-03T01:43:29.205Z,7.03
2018-12-03T01:45:58.424Z,9.00
2018-12-03T01:48:28.199Z,8.60
2018-12-03T01:50:57.403Z,7.47
2018-12-03T01:53:26.637Z,8.13
2018-12-03T01:55:55.833Z,8.97
2018-12-03T01:58:25.031Z,7.27
2018-12-03T02:00:54.281Z,6.17
2018-12-03T02:03:23.501Z,6.50
2018-12-03T02:05:53.085Z,6.80
2018-12-03T02:08:22.327Z,6.37
2018-12-03T02:10:51.553Z,6.10
2018-12-03T02:13:20.747Z,6.20
2018-12-03T02:15:49.950Z,5.90
2018-12-03T02:18:19.123Z,5.80
2018-12-03T02:20:48.350Z,4.90
2018-12-03T02:23:17.564Z,6.83
2018-12-03T02:25:46.766Z,6.77
2018-12-03T02:28:15.993Z,6.97
2018-12-03T02:30:45.213Z,6.93
2018-12-03T02:33:14.423Z,6.27
2018-12-03T02:35:43.626Z,5.50
2018-12-03T02:38:12.950Z,5.23
2018-12-03T02:40:42.302Z,7.00
2018-12-03T02:43:11.505Z,6.50
2018-12-03T02:45:40.725Z,7.10
2018-12-03T02:48:09.909Z,6.47
2018-12-03T02:50:39.118Z,7.10
2018-12-03T02:53:08.335Z,6.67
2018-12-03T02:55:37.542Z,6.07
2018-12-03T02:58:06.775Z,7.33
2018-12-03T03:00:38.941Z,6.07
2018-12-03T03:03:08.444Z,6.67
2018-12-03T03:05:37.669Z,6.77
2018-12-03T03:08:07.671Z,7.03
2018-12-03T03:10:36.852Z,6.13
2018-12-03T03:13:06.070Z,5.37
2018-12-03T03:15:35.362Z,6.40
2018-12-03T03:18:04.873Z,7.53
2018-12-03T03:20:34.103Z,7.73
2018-12-03T03:23:03.299Z,5.27
2018-12-03T03:25:32.497Z,7.63
2018-12-03T03:28:01.659Z,6.80
2018-12-03T03:30:30.927Z,6.10
2018-12-03T03:33:00.193Z,7.40
2018-12-03T03:35:29.390Z,7.70
2018-12-03T03:37:58.622Z,5.63
2018-12-03T03:40:27.824Z,5.23
2018-12-03T03:42:57.075Z,7.27
2018-12-03T03:45:26.986Z,6.70
2018-12-03T03:47:56.209Z,7.27
2018-12-03T03:50:25.432Z,6.40
2018-12-03T03:52:54.711Z,7.00
2018-12-03T03:55:23.905Z,7.17
2018-12-03T03:57:53.121Z,7.10
2018-12-03T04:00:22.339Z,6.53
2018-12-03T04:02:52.027Z,7.30
2018-12-03T04:05:20.796Z,7.10
2018-12-03T04:07:50.057Z,8.37
2018-12-03T04:10:19.906Z,5.87
2018-12-03T04:12:49.127Z,5.40
2018-12-03T04:15:18.354Z,6.30
2018-12-03T04:17:47.540Z,5.90
2018-12-03T04:20:19.269Z,6.73
2018-12-03T04:22:51.819Z,6.30
2018-12-03T04:25:21.062Z,6.00
2018-12-03T04:27:50.289Z,5.90
2018-12-03T04:30:22.010Z,6.37
2018-12-03T04:32:52.537Z,6.23
2018-12-03T04:35:22.490Z,7.40
2018-12-03T04:37:51.705Z,6.07
2018-12-03T04:40:20.906Z,6.60
2018-12-03T04:42:50.200Z,7.13
2018-12-03T04:45:19.887Z,5.97
2018-12-03T04:47:51.047Z,7.53
2018-12-03T04:50:21.770Z,5.43
2018-12-03T04:52:51.002Z,6.63
2018-12-03T04:55:21.153Z,4.70
2018-12-03T04:57:50.561Z,5.80
2018-12-03T05:00:21.125Z,6.43
2018-12-03T05:02:52.705Z,6.70
2018-12-03T05:05:21.984Z,6.60
2018-12-03T05:07:51.183Z,5.03
2018-12-03T05:10:22.004Z,7.30
2018-12-03T05:12:52.938Z,5.47
2018-12-03T05:15:22.223Z,6.47
2018-12-03T05:17:51.452Z,7.03
2018-12-03T05:20:22.680Z,5.23
2018-12-03T05:22:51.876Z,6.87
2018-12-03T05:25:21.118Z,6.40
2018-12-03T05:27:50.348Z,5.53
2018-12-03T05:30:19.591Z,6.90
2018-12-03T05:32:48.817Z,6.80
2018-12-03T05:35:24.519Z,8.63
2018-12-03T05:37:53.759Z,13.87
2018-12-03T05:40:29.182Z,22.03
2018-12-03T05:42:58.379Z,12.87
2018-12-03T05:45:27.587Z,12.03
2018-12-03T05:47:56.844Z,8.60
2018-12-03T05:50:26.013Z,8.30
2018-12-03T05:52:55.205Z,7.80
2018-12-03T05:55:24.421Z,8.47
2018-12-03T05:57:53.615Z,6.40
2018-12-03T06:00:23.965Z,7.47
2018-12-03T06:02:53.338Z,6.80
2018-12-03T06:05:22.533Z,7.40
2018-12-03T06:07:51.746Z,8.27
2018-12-03T06:10:23.724Z,11.13
2018-12-03T06:12:52.944Z,13.00
2018-12-03T06:15:23.033Z,15.87
2018-12-03T06:17:53.673Z,9.10
2018-12-03T06:20:23.766Z,8.70
2018-12-03T06:22:54.436Z,8.50
2018-12-03T06:25:26.956Z,7.87
2018-12-03T06:27:56.193Z,7.50
2018-12-03T06:30:26.603Z,7.90
2018-12-03T06:32:55.815Z,7.40
2018-12-03T06:35:25.013Z,9.13
2018-12-03T06:37:54.211Z,9.23
2018-12-03T06:40:25.665Z,7.67
2018-12-03T06:42:54.877Z,7.13
2018-12-03T06:45:25.052Z,7.20
2018-12-03T06:48:08.335Z,7.90
2018-12-03T06:50:37.559Z,7.40
2018-12-03T06:53:06.961Z,8.20
2018-12-03T06:55:36.179Z,6.77
2018-12-03T06:58:05.482Z,7.23
2018-12-03T07:00:34.683Z,9.20
2018-12-03T07:03:03.902Z,8.90
2018-12-03T07:05:33.104Z,7.73
2018-12-03T07:08:03.040Z,8.97
2018-12-03T07:10:32.602Z,11.50
2018-12-03T07:13:04.776Z,10.90
2018-12-03T07:15:36.637Z,10.27
2018-12-03T07:18:07.317Z,20.03
2018-12-03T07:20:36.534Z,6.90
2018-12-03T07:23:05.953Z,22.80
2018-12-03T07:25:35.143Z,28.67
2018-12-03T07:28:04.380Z,11.77
2018-12-03T07:30:33.572Z,16.20
2018-12-03T07:33:02.817Z,10.37
2018-12-03T07:35:32.030Z,8.87
2018-12-03T07:38:01.689Z,10.40
2018-12-03T07:40:30.899Z,9.80
2018-12-03T07:43:00.151Z,12.20
2018-12-03T07:45:29.374Z,11.30
2018-12-03T07:47:58.579Z,6.47
2018-12-03T07:50:27.891Z,9.67
2018-12-03T07:52:57.074Z,9.70
2018-12-03T07:55:27.108Z,12.67
2018-12-03T07:58:07.810Z,10.33
2018-12-03T08:00:41.158Z,10.07
2018-12-03T08:03:10.510Z,10.70
2018-12-03T08:05:39.687Z,17.67
2018-12-03T08:08:09.534Z,12.20
2018-12-03T08:10:39.836Z,30.70
2018-12-03T08:13:11.297Z,14.70
2018-12-03T08:15:40.513Z,21.70
2018-12-03T08:18:13.431Z,25.43
2018-12-03T08:20:51.144Z,20.00
2018-12-03T08:23:37.107Z,12.70
2018-12-03T08:26:09.125Z,13.37
2018-12-03T08:28:38.344Z,12.30
2018-12-03T08:31:07.845Z,17.10
2018-12-03T08:33:37.042Z,23.77
2018-12-03T08:36:07.778Z,23.20
2018-12-03T08:38:37.448Z,16.80
2018-12-03T08:41:07.737Z,20.10
2018-12-03T08:43:36.963Z,16.27
2018-12-03T08:46:09.109Z,11.87
2018-12-03T08:48:40.976Z,11.23
2018-12-03T08:51:11.682Z,9.67
2018-12-03T08:53:41.796Z,14.03
2018-12-03T08:56:10.970Z,13.40
2018-12-03T08:58:40.176Z,13.90
2018-12-03T09:01:13.202Z,14.23
2018-12-03T09:03:44.539Z,15.03
2018-12-03T09:06:14.714Z,10.27
2018-12-03T09:08:49.363Z,9.33
2018-12-03T09:11:20.851Z,14.17
2018-12-03T09:13:50.180Z,17.63
2018-12-03T09:16:19.472Z,13.03
2018-12-03T09:18:48.705Z,14.60
2018-12-03T09:21:19.137Z,10.77
2018-12-03T09:23:49.711Z,13.83
2018-12-03T09:26:19.015Z,12.93
2018-12-03T09:28:48.191Z,13.00
2018-12-03T09:31:20.717Z,16.13
2018-12-03T09:33:54.193Z,13.40
2018-12-03T09:36:24.414Z,11.07
2018-12-03T09:39:05.591Z,13.40
2018-12-03T09:41:34.875Z,13.70
2018-12-03T09:44:04.091Z,12.80
2018-12-03T09:46:33.242Z,14.37
2018-12-03T09:49:02.494Z,14.13
2018-12-03T09:51:33.459Z,15.17
2018-12-03T09:54:05.056Z,13.10
2018-12-03T09:56:47.303Z,14.00
2018-12-03T09:59:19.754Z,13.67
2018-12-03T10:01:51.225Z,14.80
2018-12-03T10:04:39.507Z,14.53
2018-12-03T10:07:08.739Z,14.63
2018-12-03T10:09:40.079Z,16.97
2018-12-03T10:12:10.554Z,17.10
2018-12-03T10:14:39.915Z,16.63
2018-12-03T10:17:10.047Z,15.03
2018-12-03T10:19:39.276Z,15.50
2018-12-03T10:22:09.125Z,13.60
2018-12-03T10:24:38.741Z,15.03
2018-12-03T10:27:12.213Z,15.50
2018-12-03T10:29:42.356Z,15.50
2018-12-03T10:32:16.309Z,15.33
2018-12-03T10:34:45.547Z,17.30
2018-12-03T10:37:15.000Z,14.70
2018-12-03T10:39:44.256Z,15.40
2018-12-03T10:42:17.661Z,16.80
2018-12-03T10:44:47.640Z,17.83
2018-12-03T10:47:16.852Z,17.67
2018-12-03T10:49:46.061Z,19.43
2018-12-03T10:52:22.845Z,18.67
2018-12-03T10:54:52.097Z,18.63
2018-12-03T10:57:22.694Z,20.60
2018-12-03T10:59:54.805Z,17.90
2018-12-03T11:02:36.968Z,14.23
2018-12-03T11:05:13.276Z,16.60
2018-12-03T11:07:42.547Z,15.70
2018-12-03T11:10:11.765Z,20.30
2018-12-03T11:12:41.269Z,20.23
2018-12-03T11:15:15.163Z,18.37
2018-12-03T11:17:44.433Z,20.30
2018-12-03T11:20:13.691Z,17.90
2018-12-03T11:22:43.063Z,18.23
2018-12-03T11:25:15.466Z,18.40
2018-12-03T11:27:48.299Z,19.77
2018-12-03T11:30:17.557Z,20.27
2018-12-03T11:32:46.869Z,18.70
2018-12-03T11:35:21.554Z,19.97
2018-12-03T11:37:51.449Z,20.13
2018-12-03T11:40:42.777Z,21.30
2018-12-03T11:43:12.317Z,20.23
2018-12-03T11:45:41.527Z,19.17
2018-12-03T11:48:10.954Z,19.10
2018-12-03T11:50:40.245Z,18.47
2018-12-03T11:53:09.462Z,17.63
2018-12-03T11:55:38.690Z,17.70
2018-12-03T11:58:07.876Z,18.10
2018-12-03T12:00:37.062Z,19.60
2018-12-03T12:03:06.587Z,17.10
2018-12-03T12:05:35.829Z,16.80
2018-12-03T12:08:05.044Z,17.90
2018-12-03T12:10:34.511Z,19.30
2018-12-03T12:13:03.957Z,27.40
2018-12-03T12:15:33.170Z,28.73
2018-12-03T12:18:02.477Z,21.53
2018-12-03T12:20:31.660Z,20.67
2018-12-03T12:23:00.847Z,20.20
2018-12-03T12:25:30.072Z,19.77
2018-12-03T12:28:00.111Z,19.40
2018-12-03T12:30:29.343Z,17.50
2018-12-03T12:32:58.566Z,16.30
2018-12-03T12:35:27.783Z,16.10
2018-12-03T12:37:57.020Z,16.63
2018-12-03T12:40:26.310Z,16.30
2018-12-03T12:42:56.033Z,16.30
2018-12-03T12:45:30.033Z,17.67
2018-12-03T12:47:59.235Z,17.37
2018-12-03T12:50:28.426Z,17.30
2018-12-03T12:52:57.887Z,18.23
2018-12-03T12:55:27.093Z,15.57
2018-12-03T12:57:56.314Z,15.77
2018-12-03T13:00:25.548Z,15.40
2018-12-03T13:02:54.773Z,15.20
2018-12-03T13:05:28.642Z,12.60
2018-12-03T13:07:53.279Z,11.60
2018-12-03T13:10:22.486Z,10.93
2018-12-03T13:12:53.094Z,8.10
2018-12-03T13:15:22.468Z,11.60
2018-12-03T13:17:51.721Z,18.20
2018-12-03T13:20:21.478Z,13.83
2018-12-03T13:22:50.674Z,15.00
2018-12-03T13:25:21.068Z,16.40
2018-12-03T13:27:52.049Z,10.73
2018-12-03T13:30:30.067Z,12.57
2018-12-03T13:32:59.309Z,13.13
2018-12-03T13:35:29.231Z,11.40
2018-12-03T13:37:58.452Z,12.93
2018-12-03T13:40:27.654Z,11.77
2018-12-03T13:42:56.887Z,13.10
2018-12-03T13:45:27.530Z,13.13
2018-12-03T13:47:59.234Z,13.03
2018-12-03T13:50:28.500Z,15.20
2018-12-03T13:52:57.724Z,15.13
2018-12-03T13:55:26.950Z,15.63
2018-12-03T13:57:56.198Z,18.13
2018-12-03T14:00:26.785Z,19.53
2018-12-03T14:03:08.207Z,17.27
2018-12-03T14:05:54.237Z,19.00
2018-12-03T14:09:44.942Z,18.60
2018-12-03T14:12:26.347Z,19.87
2018-12-03T14:15:19.649Z,18.33
2018-12-03T14:17:57.652Z,15.70
2018-12-03T14:20:31.534Z,16.00
2018-12-03T14:23:05.889Z,16.50
2018-12-03T14:25:35.136Z,17.30
2018-12-03T14:28:04.345Z,19.53
2018-12-03T14:30:33.651Z,16.97
2018-12-03T14:33:02.914Z,18.20
2018-12-03T14:35:32.155Z,19.40
2018-12-03T14:38:01.368Z,18.17
2018-12-03T14:40:30.609Z,20.43
2018-12-03T14:42:59.794Z,21.17
2018-12-03T14:45:29.014Z,22.47
2018-12-03T14:47:58.243Z,24.03
2018-12-03T14:50:27.438Z,25.30
2018-12-03T14:52:56.621Z,21.20
2018-12-03T14:55:25.945Z,24.40
2018-12-03T14:57:55.136Z,24.60
2018-12-03T15:00:24.349Z,23.83
2018-12-03T15:02:53.582Z,28.70
2018-12-03T15:05:22.783Z,24.57
2018-12-03T15:07:52.040Z,25.63
2018-12-03T15:10:21.272Z,25.80
2018-12-03T15:12:50.484Z,27.10
2018-12-03T15:15:19.710Z,26.00
2018-12-03T15:17:49.080Z,23.00
2018-12-03T15:20:18.294Z,22.03
2018-12-03T15:22:47.561Z,21.67
2018-12-03T15:25:16.774Z,19.00
2018-12-03T15:27:45.973Z,20.40
2018-12-03T15:30:15.215Z,18.73
2018-12-03T15:32:44.429Z,17.30
2018-12-03T15:35:13.648Z,18.97
2018-12-03T15:38:11.832Z,19.03
2018-12-03T15:40:40.002Z,17.70
2018-12-03T15:43:08.177Z,15.80
2018-12-03T15:45:36.388Z,15.23
2018-12-03T15:48:04.606Z,14.83
2018-12-03T15:50:32.768Z,12.13
2018-12-03T15:53:00.942Z,13.23
2018-12-03T15:55:29.140Z,11.90
2018-12-03T15:57:57.305Z,10.90
2018-12-03T16:00:25.502Z,10.00
2018-12-03T16:02:53.670Z,10.33
2018-12-03T16:05:21.891Z,10.67
2018-12-03T16:07:50.087Z,11.30
2018-12-03T16:10:18.342Z,10.50
2018-12-03T16:12:47.783Z,10.37
2018-12-03T16:15:16.291Z,10.80
2018-12-03T16:17:44.524Z,11.20
2018-12-03T16:20:12.973Z,10.37
2018-12-03T16:22:41.172Z,9.97
2018-12-03T16:25:09.432Z,11.20
2018-12-03T16:27:37.624Z,10.40
2018-12-03T16:30:07.228Z,11.93
2018-12-03T16:32:35.401Z,12.97
2018-12-03T16:35:03.843Z,11.23
2018-12-03T16:37:32.059Z,12.03
2018-12-03T16:40:00.246Z,12.10
2018-12-03T16:42:28.500Z,12.50
2018-12-03T16:44:56.752Z,13.23
2018-12-03T16:47:24.962Z,12.23
2018-12-03T16:49:53.141Z,14.50
2018-12-03T16:52:21.349Z,15.77
2018-12-03T16:54:49.513Z,19.33
2018-12-03T16:57:17.685Z,19.53
2018-12-03T16:59:45.920Z,20.03
2018-12-03T17:02:14.097Z,14.33
2018-12-03T17:04:42.270Z,15.40
2018-12-03T17:07:14.066Z,13.63
2018-12-03T17:09:40.893Z,11.23
2018-12-03T17:12:09.274Z,13.70
2018-12-03T17:14:37.479Z,12.50
2018-12-03T17:17:05.642Z,11.93
2018-12-03T17:19:33.872Z,13.20
2018-12-03T17:22:02.779Z,13.90
2018-12-03T17:24:30.986Z,15.10
2018-12-03T17:26:59.163Z,13.30
2018-12-03T17:29:27.325Z,14.10
2018-12-03T17:31:55.515Z,13.53
2018-12-03T17:34:23.741Z,14.57
2018-12-03T17:36:51.966Z,17.20
2018-12-03T17:39:20.174Z,13.33
2018-12-03T17:41:48.394Z,15.00
2018-12-03T17:44:16.612Z,14.90
2018-12-03T17:46:44.798Z,14.40
2018-12-03T17:49:12.976Z,14.73
2018-12-03T17:51:41.208Z,14.30
2018-12-03T17:54:09.432Z,19.00
2018-12-03T17:56:37.653Z,18.20
2018-12-03T17:59:05.874Z,18.83
2018-12-03T18:01:34.045Z,17.90
2018-12-03T18:04:02.305Z,17.83
2018-12-03T18:06:30.565Z,21.03
2018-12-03T18:08:58.741Z,19.20
2018-12-03T18:11:26.941Z,15.30
2018-12-03T18:13:55.116Z,14.17
2018-12-03T18:16:24.271Z,14.57
2018-12-03T18:18:52.447Z,15.33
2018-12-03T18:21:20.716Z,16.60
2018-12-03T18:23:48.903Z,13.53
2018-12-03T18:26:17.108Z,15.10
2018-12-03T18:28:45.268Z,17.40
2018-12-03T18:31:13.475Z,14.43
2018-12-03T18:33:41.744Z,15.17
2018-12-03T18:36:09.923Z,16.00
2018-12-03T18:38:38.253Z,17.10
2018-12-03T18:41:06.979Z,14.80
2018-12-03T18:43:35.323Z,21.33
2018-12-03T18:46:03.485Z,20.67
2018-12-03T18:48:31.826Z,18.57
2018-12-03T18:51:03.137Z,18.50
2018-12-03T18:53:31.405Z,18.93
2018-12-03T18:56:00.576Z,15.03
2018-12-03T18:58:28.801Z,19.13
2018-12-03T19:00:57.062Z,19.63
2018-12-03T19:03:25.316Z,19.80
2018-12-03T19:05:53.499Z,18.50
2018-12-03T19:08:21.656Z,17.33
2018-12-03T19:10:49.884Z,19.20
2018-12-03T19:13:18.059Z,18.53
2018-12-03T19:15:46.290Z,20.47
2018-12-03T19:18:14.516Z,18.90
2018-12-03T19:20:42.829Z,16.30
2018-12-03T19:23:11.927Z,18.63
2018-12-03T19:25:40.125Z,19.53
2018-12-03T19:28:08.377Z,20.10
2018-12-03T19:30:36.536Z,18.63
2018-12-03T19:33:04.925Z,19.63
2018-12-03T19:35:33.134Z,21.40
2018-12-03T19:38:01.373Z,18.27
2018-12-03T19:40:29.575Z,16.63
2018-12-03T19:42:57.749Z,18.13
2018-12-03T19:45:25.941Z,15.77
2018-12-03T19:47:54.132Z,15.83
2018-12-03T19:50:22.471Z,19.20
2018-12-03T19:52:50.764Z,22.67
2018-12-03T19:55:19.088Z,24.67
2018-12-03T19:57:47.285Z,25.53
2018-12-03T20:00:15.564Z,25.10
2018-12-03T20:02:43.762Z,24.67
2018-12-03T20:05:18.427Z,24.00
2018-12-03T20:07:47.012Z,26.60
2018-12-03T20:10:15.241Z,23.13
2018-12-03T20:12:43.467Z,24.70
2018-12-03T20:15:11.856Z,25.53
2018-12-03T20:17:40.113Z,24.10
2018-12-03T20:20:08.719Z,26.17
2018-12-03T20:22:37.790Z,23.70
2018-12-03T20:25:06.798Z,24.97
2018-12-03T20:27:35.496Z,25.43
2018-12-03T20:30:09.532Z,23.87
2018-12-03T20:32:38.542Z,24.87
2018-12-03T20:35:07.944Z,29.27
2018-12-03T20:37:37.611Z,26.93
2018-12-03T20:40:13.448Z,25.93
2018-12-03T20:42:42.001Z,27.13
2018-12-03T20:45:17.488Z,24.77
2018-12-03T20:47:47.838Z,24.73
2018-12-03T20:50:18.360Z,24.30
2018-12-03T20:52:48.743Z,25.17
2018-12-03T20:55:19.095Z,25.43
2018-12-03T20:57:47.292Z,24.60
2018-12-03T21:00:15.565Z,27.07
2018-12-03T21:02:44.021Z,26.63
2018-12-03T21:05:12.223Z,26.30
2018-12-03T21:07:40.393Z,25.80
2018-12-03T21:10:08.562Z,30.07
2018-12-03T21:12:36.841Z,25.90
2018-12-03T21:15:06.596Z,26.63
2018-12-03T21:17:35.119Z,25.40
2018-12-03T21:20:08.491Z,26.43
2018-12-03T21:22:36.666Z,26.07
2018-12-03T21:25:05.618Z,27.70
2018-12-03T21:27:33.813Z,24.20
2018-12-03T21:30:01.981Z,27.17
2018-12-03T21:32:30.155Z,32.30
2018-12-03T21:34:58.350Z,64.30
2018-12-03T21:37:26.560Z,62.57
2018-12-03T21:39:54.738Z,32.93
2018-12-03T21:42:22.942Z,30.70
2018-12-03T21:44:51.103Z,26.43
2018-12-03T21:47:19.276Z,26.93
2018-12-03T21:49:47.758Z,27.03
2018-12-03T21:52:15.924Z,27.10
2018-12-03T21:54:44.156Z,27.00
2018-12-03T21:57:12.356Z,27.07
2018-12-03T21:59:40.554Z,26.37
2018-12-03T22:02:08.777Z,28.70
2018-12-03T22:04:36.944Z,27.87
2018-12-03T22:07:05.212Z,30.00
2018-12-03T22:09:33.409Z,26.37
2018-12-03T22:12:01.669Z,29.17
2018-12-03T22:14:29.973Z,28.67
2018-12-03T22:16:58.131Z,27.27
2018-12-03T22:19:26.316Z,29.50
2018-12-03T22:21:54.545Z,29.10
2018-12-03T22:24:22.759Z,28.63
2018-12-03T22:26:50.926Z,29.27
2018-12-03T22:29:19.597Z,28.60
2018-12-03T22:31:47.778Z,27.13
2018-12-03T22:34:16.047Z,28.40
2018-12-03T22:36:44.257Z,27.23
2018-12-03T22:39:12.468Z,28.10
2018-12-03T22:41:40.649Z,29.80
2018-12-03T22:44:08.855Z,28.00
2018-12-03T22:46:37.021Z,29.97
2018-12-03T22:49:05.241Z,30.17
2018-12-03T22:51:33.455Z,28.23
2018-12-03T22:54:01.612Z,31.83
2018-12-03T22:56:29.920Z,30.83
2018-12-03T22:58:58.152Z,29.93
2018-12-03T23:01:26.355Z,29.47
2018-12-03T23:03:54.521Z,35.00
2018-12-03T23:06:22.917Z,37.20
2018-12-03T23:08:51.121Z,43.20
2018-12-03T23:11:19.307Z,40.70
2018-12-03T23:13:47.548Z,41.23
2018-12-03T23:16:15.792Z,41.73
2018-12-03T23:18:44.005Z,39.17
2018-12-03T23:21:12.230Z,40.43
2018-12-03T23:23:40.436Z,35.87
2018-12-03T23:26:08.607Z,35.20
2018-12-03T23:28:36.857Z,31.80
2018-12-03T23:31:05.017Z,34.20
2018-12-03T23:33:33.277Z,25.77
2018-12-03T23:36:01.481Z,25.90
2018-12-03T23:38:29.703Z,25.73
2018-12-03T23:40:57.934Z,24.67
2018-12-03T23:43:26.164Z,24.43
2018-12-03T23:45:54.473Z,27.30
2018-12-03T23:48:22.684Z,26.27
2018-12-03T23:50:51.101Z,29.00
2018-12-03T23:53:19.280Z,27.13
2018-12-03T23:55:47.450Z,34.57
2018-12-03T23:58:15.956Z,29.80
